createdAt,value
2018-10-18T00:00:19.831Z,41.03
2018-10-18T00:02:52.956Z,39.83
2018-10-18T00:05:21.068Z,38.97
2018-10-18T00:07:55.797Z,41.10
2018-10-18T00:10:23.881Z,42.90
2018-10-18T00:12:56.998Z,41.13
2018-10-18T00:15:25.268Z,43.20
2018-10-18T00:17:53.315Z,43.47
2018-10-18T00:20:33.243Z,44.60
2018-10-18T00:23:01.441Z,44.20
2018-10-18T00:25:33.717Z,42.27
2018-10-18T00:28:06.028Z,48.63
2018-10-18T00:30:37.396Z,46.33
2018-10-18T00:33:10.956Z,50.17
2018-10-18T00:35:44.041Z,51.37
2018-10-18T00:38:12.272Z,53.13
2018-10-18T00:40:45.122Z,52.80
2018-10-18T00:43:13.452Z,53.97
2018-10-18T00:45:41.504Z,51.87
2018-10-18T00:48:15.843Z,49.73
2018-10-18T00:50:46.852Z,51.00
2018-10-18T00:53:14.973Z,47.53
2018-10-18T00:55:45.784Z,48.83
2018-10-18T00:58:13.910Z,47.57
2018-10-18T01:00:52.261Z,46.83
2018-10-18T01:03:32.152Z,48.90
2018-10-18T01:06:00.294Z,44.10
2018-10-18T01:08:42.089Z,46.70
2018-10-18T01:11:10.196Z,47.83
2018-10-18T01:13:44.308Z,46.20
2018-10-18T01:16:22.682Z,44.27
2018-10-18T01:18:50.816Z,47.07
2018-10-18T01:21:19.011Z,44.50
2018-10-18T01:23:49.806Z,46.73
2018-10-18T01:26:18.312Z,43.47
2018-10-18T01:28:46.352Z,44.53
2018-10-18T01:31:21.997Z,44.67
2018-10-18T01:33:56.302Z,44.53
2018-10-18T01:36:27.201Z,46.87
2018-10-18T01:38:55.413Z,47.00
2018-10-18T01:41:32.864Z,50.13
2018-10-18T01:44:10.455Z,45.53
2018-10-18T01:46:38.745Z,47.90
2018-10-18T01:49:12.619Z,48.07
2018-10-18T01:51:40.838Z,48.40
2018-10-18T01:54:09.092Z,47.03
2018-10-18T01:56:39.845Z,47.50
2018-10-18T01:59:07.969Z,50.90
2018-10-18T02:01:39.454Z,49.37
2018-10-18T02:04:13.739Z,50.07
2018-10-18T02:06:45.852Z,47.20
2018-10-18T02:09:14.031Z,47.80
2018-10-18T02:11:46.947Z,46.60
2018-10-18T02:14:14.967Z,45.63
2018-10-18T02:16:49.503Z,46.87
2018-10-18T02:21:57.844Z,45.17
2018-10-18T02:24:28.993Z,45.63
2018-10-18T02:26:57.043Z,44.00
2018-10-18T02:29:27.902Z,43.33
2018-10-18T02:32:00.315Z,42.00
2018-10-18T02:34:32.638Z,37.87
2018-10-18T02:37:03.548Z,42.63
2018-10-18T02:39:31.657Z,42.83
2018-10-18T02:42:07.049Z,43.03
2018-10-18T02:44:41.709Z,42.33
2018-10-18T02:47:09.819Z,40.47
2018-10-18T02:49:51.983Z,43.00
2018-10-18T02:52:22.139Z,41.03
2018-10-18T02:54:50.206Z,42.07
2018-10-18T02:57:21.128Z,40.53
2018-10-18T02:59:49.195Z,40.03
2018-10-18T03:02:19.199Z,39.83
2018-10-18T03:04:47.372Z,40.20
2018-10-18T03:07:29.189Z,40.83
2018-10-18T03:09:57.357Z,39.60
2018-10-18T03:12:30.632Z,41.70
2018-10-18T03:15:05.053Z,40.70
2018-10-18T03:17:47.561Z,39.07
2018-10-18T03:20:18.389Z,39.40
2018-10-18T03:22:46.879Z,39.87
2018-10-18T03:25:14.951Z,40.20
2018-10-18T03:27:48.583Z,41.27
2018-10-18T03:30:16.744Z,41.13
2018-10-18T03:32:47.773Z,40.00
2018-10-18T03:35:15.844Z,40.33
2018-10-18T03:37:50.422Z,38.83
2018-10-18T03:40:24.875Z,40.03
2018-10-18T03:42:57.304Z,39.70
2018-10-18T03:45:28.474Z,38.03
2018-10-18T03:47:59.139Z,39.97
2018-10-18T03:50:33.444Z,38.77
2018-10-18T03:53:12.140Z,39.10
2018-10-18T03:55:43.105Z,38.77
2018-10-18T03:58:22.849Z,39.87
2018-10-18T04:00:56.021Z,39.23
2018-10-18T04:03:27.163Z,38.33
2018-10-18T04:05:55.319Z,37.53
2018-10-18T04:08:26.284Z,38.50
2018-10-18T04:10:54.489Z,37.00
2018-10-18T04:13:22.636Z,36.77
2018-10-18T04:16:00.252Z,36.87
2018-10-18T04:18:33.277Z,35.40
2018-10-18T04:21:04.034Z,36.57
2018-10-18T04:23:36.216Z,34.40
2018-10-18T04:26:14.549Z,34.37
2018-10-18T04:28:44.763Z,35.67
2018-10-18T04:31:12.879Z,32.07
2018-10-18T04:33:47.342Z,34.97
2018-10-18T04:36:27.183Z,33.80
2018-10-18T04:38:55.279Z,34.17
2018-10-18T04:41:29.693Z,34.00
2018-10-18T04:44:04.930Z,35.07
2018-10-18T04:46:44.719Z,36.47
2018-10-18T04:49:12.867Z,35.33
2018-10-18T04:51:47.177Z,34.03
2018-10-18T04:54:27.589Z,35.03
2018-10-18T04:56:59.045Z,29.50
2018-10-18T04:59:29.295Z,32.67
2018-10-18T05:01:57.444Z,30.33
2018-10-18T05:04:28.379Z,31.20
2018-10-18T05:06:58.868Z,31.73
2018-10-18T05:09:27.236Z,31.33
2018-10-18T05:11:55.267Z,32.10
2018-10-18T05:14:29.824Z,32.00
2018-10-18T05:17:02.042Z,32.63
2018-10-18T05:19:41.781Z,32.33
2018-10-18T05:22:09.800Z,31.50
2018-10-18T05:24:42.164Z,32.43
2018-10-18T05:27:12.077Z,30.17
2018-10-18T05:29:46.194Z,30.30
2018-10-18T05:32:19.293Z,31.07
2018-10-18T05:34:47.370Z,30.23
2018-10-18T05:37:22.787Z,28.80
2018-10-18T05:39:57.193Z,28.67
2018-10-18T05:42:28.129Z,29.77
2018-10-18T05:44:56.245Z,29.57
2018-10-18T05:47:31.696Z,30.83
2018-10-18T05:50:06.888Z,29.40
2018-10-18T05:52:40.145Z,31.23
2018-10-18T05:55:16.251Z,28.93
2018-10-18T05:57:44.409Z,30.40
2018-10-18T06:00:16.798Z,30.27
2018-10-18T06:02:48.139Z,29.73
2018-10-18T06:05:21.038Z,27.73
2018-10-18T06:07:58.604Z,27.60
2018-10-18T06:10:42.177Z,28.80
2018-10-18T06:13:10.547Z,28.33
2018-10-18T06:15:38.633Z,27.07
2018-10-18T06:18:13.241Z,29.00
2018-10-18T06:20:45.635Z,28.07
2018-10-18T06:23:27.510Z,28.53
2018-10-18T06:25:57.732Z,27.17
2018-10-18T06:28:25.895Z,25.97
2018-10-18T06:30:59.001Z,24.53
2018-10-18T06:33:29.052Z,27.73
2018-10-18T06:35:57.115Z,27.13
2018-10-18T06:38:27.280Z,25.10
2018-10-18T06:40:55.404Z,25.27
2018-10-18T06:46:11.657Z,25.97
2018-10-18T06:48:48.144Z,27.23
2018-10-18T06:51:18.270Z,26.33
2018-10-18T06:53:46.376Z,27.33
2018-10-18T06:56:24.515Z,25.97
2018-10-18T06:58:54.533Z,27.03
2018-10-18T07:01:29.896Z,26.93
2018-10-18T07:04:02.297Z,25.17
2018-10-18T07:06:37.497Z,25.30
2018-10-18T07:09:08.575Z,24.13
2018-10-18T07:11:36.676Z,24.83
2018-10-18T07:14:12.797Z,23.90
2018-10-18T07:16:43.828Z,24.13
2018-10-18T07:19:14.660Z,24.87
2018-10-18T07:21:43.298Z,24.27
2018-10-18T07:24:16.660Z,22.57
2018-10-18T07:26:46.875Z,22.77
2018-10-18T07:29:15.022Z,22.70
2018-10-18T07:31:45.927Z,22.83
2018-10-18T07:34:14.007Z,25.03
2018-10-18T07:36:45.061Z,23.50
2018-10-18T07:39:15.503Z,23.60
2018-10-18T07:41:43.991Z,23.47
2018-10-18T07:44:12.468Z,23.07
2018-10-18T07:46:40.931Z,21.57
2018-10-18T07:49:09.257Z,23.43
2018-10-18T07:51:37.333Z,20.30
2018-10-18T07:54:13.384Z,19.80
2018-10-18T07:56:41.874Z,19.37
2018-10-18T07:59:10.306Z,19.83
2018-10-18T08:01:38.426Z,21.17
2018-10-18T08:04:11.046Z,17.50
2018-10-18T08:06:41.259Z,19.00
2018-10-18T08:09:16.960Z,16.87
2018-10-18T08:11:49.240Z,19.37
2018-10-18T08:14:20.530Z,15.97
2018-10-18T08:16:56.130Z,16.73
2018-10-18T08:19:24.944Z,17.30
2018-10-18T08:21:53.078Z,16.40
2018-10-18T08:24:27.553Z,18.53
2018-10-18T08:27:02.934Z,18.80
2018-10-18T08:29:34.093Z,19.90
2018-10-18T08:32:05.342Z,21.37
2018-10-18T08:34:33.604Z,19.90
2018-10-18T08:37:08.385Z,19.53
2018-10-18T08:39:36.507Z,18.90
2018-10-18T08:42:12.900Z,19.87
2018-10-18T08:44:44.085Z,19.13
2018-10-18T08:47:12.277Z,19.80
2018-10-18T08:49:40.797Z,20.67
2018-10-18T08:52:09.128Z,18.90
2018-10-18T08:54:37.283Z,20.47
2018-10-18T08:57:14.239Z,20.07
2018-10-18T08:59:42.384Z,18.73
2018-10-18T09:02:15.490Z,18.17
2018-10-18T09:04:43.722Z,19.93
2018-10-18T09:07:11.866Z,18.87
2018-10-18T09:09:42.784Z,19.20
2018-10-18T09:12:12.990Z,20.00
2018-10-18T09:14:41.058Z,19.30
2018-10-18T09:17:09.915Z,18.93
2018-10-18T09:19:38.019Z,18.07
2018-10-18T09:22:09.172Z,17.70
2018-10-18T09:24:37.600Z,17.20
2018-10-18T09:27:05.930Z,16.10
2018-10-18T09:29:33.956Z,18.20
2018-10-18T09:32:08.796Z,18.10
2018-10-18T09:34:37.102Z,18.17
2018-10-18T09:37:05.880Z,16.77
2018-10-18T09:39:34.012Z,17.03
2018-10-18T09:42:09.628Z,16.90
2018-10-18T09:44:40.596Z,18.23
2018-10-18T09:47:08.866Z,17.63
2018-10-18T09:49:37.003Z,17.83
2018-10-18T09:52:09.229Z,18.43
2018-10-18T09:54:42.849Z,18.23
2018-10-18T09:57:13.757Z,15.37
2018-10-18T09:59:42.673Z,17.57
2018-10-18T10:02:19.193Z,17.10
2018-10-18T10:04:47.356Z,17.93
2018-10-18T10:07:20.684Z,17.53
2018-10-18T10:09:48.993Z,18.40
2018-10-18T10:12:22.376Z,16.90
2018-10-18T10:14:53.531Z,17.10
2018-10-18T10:17:23.643Z,15.43
2018-10-18T10:19:51.872Z,14.90
2018-10-18T10:22:20.169Z,16.23
2018-10-18T10:24:51.257Z,16.27
2018-10-18T10:27:22.299Z,14.50
2018-10-18T10:29:50.529Z,13.53
2018-10-18T10:32:21.385Z,15.30
2018-10-18T10:34:49.608Z,14.13
2018-10-18T10:37:18.769Z,14.97
2018-10-18T10:39:51.281Z,13.63
2018-10-18T10:42:21.555Z,14.63
2018-10-18T10:44:52.072Z,14.17
2018-10-18T10:47:20.648Z,13.43
2018-10-18T10:49:54.665Z,15.13
2018-10-18T10:52:22.803Z,15.63
2018-10-18T10:55:02.845Z,17.00
2018-10-18T10:57:31.079Z,18.37
2018-10-18T10:59:59.205Z,19.03
2018-10-18T11:02:27.533Z,17.77
2018-10-18T11:04:55.640Z,17.60
2018-10-18T11:07:23.765Z,17.73
2018-10-18T11:09:53.898Z,19.00
2018-10-18T11:12:22.310Z,17.53
2018-10-18T11:14:50.357Z,17.67
2018-10-18T11:17:18.717Z,17.07
2018-10-18T11:19:48.975Z,17.30
2018-10-18T11:22:19.375Z,16.70
2018-10-18T11:24:47.866Z,15.77
2018-10-18T11:27:16.213Z,15.77
2018-10-18T11:29:44.317Z,15.00
2018-10-18T11:32:15.516Z,16.60
2018-10-18T11:34:55.187Z,15.23
2018-10-18T11:37:27.439Z,15.20
2018-10-18T11:39:55.940Z,15.77
2018-10-18T11:42:28.070Z,15.00
2018-10-18T11:44:56.180Z,15.30
2018-10-18T11:47:30.547Z,14.87
2018-10-18T11:50:03.749Z,14.97
2018-10-18T11:52:42.068Z,14.87
2018-10-18T11:55:14.039Z,14.03
2018-10-18T11:57:46.200Z,14.20
2018-10-18T12:00:21.179Z,13.77
2018-10-18T12:02:49.771Z,14.13
2018-10-18T12:05:18.152Z,14.27
2018-10-18T12:07:46.251Z,14.07
2018-10-18T12:10:18.717Z,13.00
2018-10-18T12:12:54.097Z,13.07
2018-10-18T12:15:24.951Z,13.80
2018-10-18T12:17:53.013Z,14.67
2018-10-18T12:20:26.185Z,16.07
2018-10-18T12:22:57.459Z,15.13
2018-10-18T12:25:25.741Z,15.87
2018-10-18T12:27:56.466Z,16.13
2018-10-18T12:30:24.638Z,16.00
2018-10-18T12:32:56.945Z,15.53
2018-10-18T12:35:27.798Z,14.37
2018-10-18T12:37:55.989Z,14.47
2018-10-18T12:40:30.793Z,15.00
2018-10-18T12:43:11.318Z,15.67
2018-10-18T12:45:39.665Z,15.60
2018-10-18T12:48:07.806Z,15.07
2018-10-18T12:50:38.626Z,15.67
2018-10-18T12:53:06.705Z,15.60
2018-10-18T12:55:37.872Z,15.80
2018-10-18T12:58:08.442Z,15.87
2018-10-18T13:00:46.981Z,15.70
2018-10-18T13:03:17.968Z,14.30
2018-10-18T13:05:46.274Z,15.67
2018-10-18T13:08:16.594Z,15.77
2018-10-18T13:10:44.674Z,15.97
2018-10-18T13:13:14.889Z,16.87
2018-10-18T13:15:43.066Z,17.03
2018-10-18T13:18:16.198Z,15.90
2018-10-18T13:20:46.578Z,15.10
2018-10-18T13:23:16.326Z,15.40
2018-10-18T13:25:49.504Z,15.43
2018-10-18T13:28:17.763Z,14.67
2018-10-18T13:30:45.841Z,13.97
2018-10-18T13:33:18.013Z,11.67
2018-10-18T13:35:46.540Z,12.33
2018-10-18T13:38:17.740Z,13.07
2018-10-18T13:40:45.795Z,12.60
2018-10-18T13:43:25.816Z,13.17
2018-10-18T13:45:54.244Z,12.30
2018-10-18T13:48:22.363Z,13.17
2018-10-18T13:50:59.803Z,12.63
2018-10-18T13:53:33.542Z,12.77
2018-10-18T13:56:01.788Z,12.20
2018-10-18T13:58:34.021Z,12.73
2018-10-18T14:01:07.863Z,13.47
2018-10-18T14:03:35.925Z,14.37
2018-10-18T14:06:04.420Z,13.47
2018-10-18T14:08:36.778Z,12.67
2018-10-18T14:11:07.855Z,12.13
2018-10-18T14:13:35.984Z,12.33
2018-10-18T14:16:10.421Z,12.67
2018-10-18T14:18:45.628Z,12.33
2018-10-18T14:21:18.175Z,11.10
2018-10-18T14:23:49.035Z,10.23
2018-10-18T14:26:17.170Z,11.17
2018-10-18T14:28:53.917Z,10.93
2018-10-18T14:31:27.199Z,9.90
2018-10-18T14:34:01.905Z,9.00
2018-10-18T14:36:29.984Z,9.37
2018-10-18T14:39:06.067Z,9.43
2018-10-18T14:41:34.687Z,9.70
2018-10-18T14:44:06.903Z,8.60
2018-10-18T14:46:34.976Z,8.67
2018-10-18T14:49:09.225Z,9.00
2018-10-18T14:51:41.693Z,8.77
2018-10-18T14:54:12.994Z,7.87
2018-10-18T14:56:43.032Z,7.27
2018-10-18T14:59:14.067Z,8.40
2018-10-18T15:01:46.320Z,7.03
2018-10-18T15:04:14.962Z,7.40
2018-10-18T15:06:43.117Z,7.50
2018-10-18T15:09:11.236Z,9.50
2018-10-18T15:11:42.177Z,8.17
2018-10-18T15:14:10.336Z,7.97
2018-10-18T15:16:46.649Z,8.87
2018-10-18T15:19:17.688Z,9.03
2018-10-18T15:21:45.830Z,9.37
2018-10-18T15:24:18.190Z,9.17
2018-10-18T15:26:51.250Z,10.37
2018-10-18T15:29:21.556Z,9.87
2018-10-18T15:31:49.773Z,8.87
2018-10-18T15:34:22.196Z,9.13
2018-10-18T15:36:52.993Z,8.47
2018-10-18T15:39:21.337Z,9.90
2018-10-18T15:41:53.547Z,10.23
2018-10-18T15:44:27.986Z,9.93
2018-10-18T15:47:02.640Z,10.03
2018-10-18T15:49:30.664Z,10.37
2018-10-18T15:52:10.446Z,9.27
2018-10-18T15:54:41.554Z,9.70
2018-10-18T15:57:27.432Z,9.10
2018-10-18T15:59:55.580Z,8.10
2018-10-18T16:02:30.044Z,8.97
2018-10-18T16:05:04.709Z,7.40
2018-10-18T16:07:32.849Z,7.97
2018-10-18T16:10:06.213Z,7.03
2018-10-18T16:12:46.105Z,6.93
2018-10-18T16:15:14.285Z,7.17
2018-10-18T16:20:24.708Z,6.63
2018-10-18T16:22:54.912Z,6.50
2018-10-18T16:25:23.258Z,7.53
2018-10-18T16:28:03.806Z,7.97
2018-10-18T16:30:32.009Z,6.73
2018-10-18T16:33:04.532Z,7.40
2018-10-18T16:35:35.384Z,7.60
2018-10-18T16:38:03.503Z,6.47
2018-10-18T16:40:36.486Z,5.60
2018-10-18T16:43:04.768Z,5.27
2018-10-18T16:45:33.075Z,4.70
2018-10-18T16:48:06.464Z,4.27
2018-10-18T16:50:35.154Z,4.23
2018-10-18T16:53:03.639Z,4.30
2018-10-18T16:55:31.744Z,4.10
2018-10-18T16:58:06.596Z,4.00
2018-10-18T17:00:34.793Z,4.03
2018-10-18T17:03:10.088Z,4.13
2018-10-18T17:05:50.521Z,4.23
2018-10-18T17:08:21.098Z,4.23
2018-10-18T17:10:55.598Z,4.60
2018-10-18T17:13:31.043Z,4.43
2018-10-18T17:16:05.745Z,4.50
2018-10-18T17:18:42.272Z,4.30
2018-10-18T17:21:10.400Z,4.90
2018-10-18T17:23:41.279Z,5.27
2018-10-18T17:26:09.438Z,5.13
2018-10-18T17:28:45.273Z,5.20
2018-10-18T17:31:13.556Z,5.00
2018-10-18T17:33:41.646Z,5.07
2018-10-18T17:36:12.647Z,5.10
2018-10-18T17:38:40.703Z,5.90
2018-10-18T17:41:11.755Z,4.93
2018-10-18T17:43:40.120Z,5.37
2018-10-18T17:46:08.491Z,5.67
2018-10-18T17:48:36.526Z,5.60
2018-10-18T17:51:08.611Z,5.07
2018-10-18T17:53:36.771Z,4.87
2018-10-18T17:56:07.440Z,5.80
2018-10-18T17:58:35.587Z,5.40
2018-10-18T18:01:07.938Z,5.30
2018-10-18T18:03:40.370Z,5.80
2018-10-18T18:06:11.539Z,5.40
2018-10-18T18:08:41.633Z,5.60
2018-10-18T18:11:10.299Z,5.60
2018-10-18T18:13:38.540Z,5.43
2018-10-18T18:16:07.331Z,5.13
2018-10-18T18:18:35.568Z,5.73
2018-10-18T18:21:10.127Z,5.73
2018-10-18T18:23:42.381Z,5.53
2018-10-18T18:26:17.643Z,5.77
2018-10-18T18:28:52.544Z,5.23
2018-10-18T18:31:20.599Z,5.80
2018-10-18T18:33:51.768Z,5.67
2018-10-18T18:36:19.853Z,6.27
2018-10-18T18:38:50.780Z,6.97
2018-10-18T18:41:18.807Z,6.00
2018-10-18T18:43:58.549Z,5.53
2018-10-18T18:46:26.719Z,5.77
2018-10-18T18:48:59.684Z,5.73
2018-10-18T18:51:29.908Z,5.93
2018-10-18T18:53:58.013Z,5.60
2018-10-18T18:56:28.984Z,5.40
2018-10-18T18:58:57.056Z,6.30
2018-10-18T19:01:28.160Z,6.33
2018-10-18T19:03:56.353Z,6.10
2018-10-18T19:06:24.536Z,6.27
2018-10-18T19:08:59.068Z,5.70
2018-10-18T19:11:33.255Z,6.40
2018-10-18T19:14:09.044Z,5.80
2018-10-18T19:16:41.253Z,5.73
2018-10-18T19:19:12.171Z,5.70
2018-10-18T19:21:40.290Z,6.80
2018-10-18T19:24:13.368Z,6.63
2018-10-18T19:26:43.449Z,6.43
2018-10-18T19:29:14.327Z,7.27
2018-10-18T19:31:44.628Z,6.60
2018-10-18T19:34:12.809Z,6.40
2018-10-18T19:36:47.480Z,6.20
2018-10-18T19:39:15.536Z,6.80
2018-10-18T19:41:49.879Z,6.57
2018-10-18T19:44:23.344Z,6.43
2018-10-18T19:46:51.711Z,6.40
2018-10-18T19:49:20.000Z,6.73
2018-10-18T19:51:48.079Z,6.93
2018-10-18T19:54:22.572Z,8.00
2018-10-18T19:56:54.763Z,7.23
2018-10-18T19:59:24.741Z,7.10
2018-10-18T20:01:53.040Z,7.37
2018-10-18T20:04:26.037Z,6.87
2018-10-18T20:06:56.114Z,6.07
2018-10-18T20:09:27.883Z,7.13
2018-10-18T20:11:56.238Z,6.43
2018-10-18T20:14:24.544Z,6.20
2018-10-18T20:16:55.348Z,6.17
2018-10-18T20:19:23.592Z,6.20
2018-10-18T20:21:51.656Z,6.73
2018-10-18T20:24:24.987Z,6.07
2018-10-18T20:26:55.275Z,6.00
2018-10-18T20:29:23.362Z,6.40
2018-10-18T20:31:58.681Z,6.50
2018-10-18T20:34:33.187Z,6.10
2018-10-18T20:37:14.703Z,6.17
2018-10-18T20:39:47.804Z,6.47
2018-10-18T20:42:21.021Z,6.17
2018-10-18T20:44:51.195Z,6.73
2018-10-18T20:47:19.509Z,5.97
2018-10-18T20:49:53.930Z,6.83
2018-10-18T20:52:26.852Z,6.73
2018-10-18T20:54:54.861Z,5.80
2018-10-18T20:57:27.131Z,6.47
2018-10-18T21:00:00.147Z,6.70
2018-10-18T21:02:28.275Z,7.40
2018-10-18T21:05:02.898Z,6.83
2018-10-18T21:07:35.194Z,6.33
2018-10-18T21:10:08.771Z,6.40
2018-10-18T21:12:40.761Z,6.17
2018-10-18T21:15:10.884Z,6.60
2018-10-18T21:17:39.065Z,6.47
2018-10-18T21:20:20.819Z,6.47
2018-10-18T21:22:48.909Z,5.97
2018-10-18T21:25:23.406Z,6.00
2018-10-18T21:27:58.549Z,5.73
2018-10-18T21:30:29.806Z,6.13
2018-10-18T21:32:58.151Z,6.70
2018-10-18T21:35:26.342Z,6.40
2018-10-18T21:38:00.819Z,5.80
2018-10-18T21:40:37.500Z,6.23
2018-10-18T21:43:05.736Z,6.27
2018-10-18T21:45:38.149Z,5.60
2018-10-18T21:48:12.544Z,6.07
2018-10-18T21:50:43.647Z,5.67
2018-10-18T21:53:14.891Z,5.10
2018-10-18T21:55:42.977Z,5.70
2018-10-18T21:58:13.954Z,5.57
2018-10-18T22:00:43.912Z,5.50
2018-10-18T22:03:19.267Z,5.67
2018-10-18T22:05:50.197Z,5.67
2018-10-18T22:08:18.345Z,6.17
2018-10-18T22:10:48.474Z,6.50
2018-10-18T22:13:18.896Z,6.27
2018-10-18T22:15:49.986Z,6.60
2018-10-18T22:18:29.717Z,6.87
2018-10-18T22:20:57.970Z,6.63
2018-10-18T22:23:26.125Z,6.67
2018-10-18T22:26:01.490Z,5.67
2018-10-18T22:28:36.322Z,6.80
2018-10-18T22:31:04.952Z,6.60
2018-10-18T22:33:33.052Z,6.70
2018-10-18T22:36:15.077Z,6.37
2018-10-18T22:38:45.210Z,6.97
2018-10-18T22:41:13.423Z,6.50
2018-10-18T22:43:44.593Z,6.93
2018-10-18T22:46:15.863Z,8.30
2018-10-18T22:48:44.116Z,6.37
2018-10-18T22:51:12.278Z,6.10
2018-10-18T22:53:44.498Z,6.83
2018-10-18T22:56:15.575Z,6.53
2018-10-18T22:58:43.797Z,6.70
2018-10-18T23:01:18.240Z,6.03
2018-10-18T23:03:49.130Z,5.50
2018-10-18T23:06:17.271Z,6.23
2018-10-18T23:08:48.191Z,5.70
2018-10-18T23:11:16.367Z,6.40
2018-10-18T23:13:48.636Z,6.23
2018-10-18T23:16:22.872Z,6.80
2018-10-18T23:18:56.001Z,5.80
2018-10-18T23:21:24.186Z,6.07
2018-10-18T23:23:56.571Z,5.80
2018-10-18T23:26:31.188Z,6.00
2018-10-18T23:28:59.287Z,6.23
2018-10-18T23:31:35.383Z,6.23
2018-10-18T23:34:03.697Z,5.87
2018-10-18T23:36:31.775Z,5.50
2018-10-18T23:39:09.893Z,5.30
2018-10-18T23:41:38.054Z,6.07
2018-10-18T23:44:06.412Z,6.03
2018-10-18T23:46:40.751Z,7.10
2018-10-18T23:49:13.014Z,7.67
2018-10-18T23:51:44.242Z,7.00
2018-10-18T23:54:12.592Z,7.40
2018-10-18T23:56:40.707Z,7.50
2018-10-18T23:59:18.216Z,7.07
